Time;durP1;ratioP1;P1;durP2;ratioP2;P2;SDS_P1;SDS_P2;PMS_P1;PMS_P2;Temp;Humidity;BMP_temperature;BMP_pressure;BME280_temperature;BME280_humidity;BME280_pressure;Samples;Min_cycle;Max_cycle;Signal;HPM_P1;HPM_P2
2023/03/09 00:01:54;;;;;;;14.40;9.20;;;4.50;90.70;;;;;;5023795;28;20142;-62
2023/03/09 00:04:29;;;;;;;13.82;8.68;;;4.50;90.60;;;;;;5025625;28;20049;-62
2023/03/09 00:07:02;;;;;;;15.00;9.00;;;4.50;90.80;;;;;;5028842;28;20064;-62
2023/03/09 00:09:29;;;;;;;15.23;9.30;;;4.40;90.30;;;;;;5025805;28;20053;-62
2023/03/09 00:12:03;;;;;;;13.30;8.55;;;4.50;90.60;;;;;;5028492;28;20595;-62
2023/03/09 00:14:38;;;;;;;13.88;8.98;;;4.50;90.70;;;;;;5027542;28;20038;-63
2023/03/09 00:17:12;;;;;;;14.77;8.95;;;4.50;90.80;;;;;;5024465;28;20045;-63
2023/03/09 00:19:45;;;;;;;15.48;9.40;;;4.50;90.80;;;;;;5025050;28;20131;-62
2023/03/09 00:22:18;;;;;;;19.20;9.88;;;4.50;90.70;;;;;;5027422;28;20504;-62
2023/03/09 00:24:53;;;;;;;15.55;9.02;;;4.50;90.80;;;;;;5027020;28;20073;-62
2023/03/09 00:27:27;;;;;;;14.07;9.02;;;4.50;90.80;;;;;;5027658;28;20046;-62
2023/03/09 00:30:03;;;;;;;15.13;9.20;;;4.60;90.70;;;;;;5028008;28;20049;-63
2023/03/09 00:32:37;;;;;;;14.40;8.45;;;4.50;90.80;;;;;;5023230;28;20049;-62
2023/03/09 00:35:11;;;;;;;14.70;9.20;;;4.50;90.70;;;;;;5025067;28;20091;-62
2023/03/09 00:37:46;;;;;;;14.15;8.43;;;4.60;90.80;;;;;;5028160;28;20038;-63
2023/03/09 00:40:25;;;;;;;15.50;8.70;;;4.50;90.80;;;;;;5026813;28;20045;-63
2023/03/09 00:42:59;;;;;;;13.90;9.23;;;4.60;90.80;;;;;;5028296;28;20042;-63
2023/03/09 00:45:33;;;;;;;14.13;9.45;;;4.60;90.90;;;;;;5010729;28;20041;-62
2023/03/09 00:48:07;;;;;;;13.48;8.52;;;4.60;91.00;;;;;;5027592;28;20113;-63
2023/03/09 00:50:40;;;;;;;14.27;8.85;;;4.60;90.80;;;;;;5027253;28;20544;-62
2023/03/09 00:53:13;;;;;;;16.77;8.95;;;4.60;90.80;;;;;;5009515;28;20053;-63
2023/03/09 00:55:46;;;;;;;13.10;8.93;;;4.60;90.80;;;;;;5025970;28;20060;-61
2023/03/09 00:58:20;;;;;;;15.88;9.13;;;4.60;90.80;;;;;;5027760;28;20765;-60
2023/03/09 01:00:54;;;;;;;16.65;10.13;;;4.60;90.20;;;;;;5010788;28;20048;-63
2023/03/09 01:03:28;;;;;;;16.15;9.30;;;4.60;90.80;;;;;;5026808;28;20080;-64
2023/03/09 01:06:02;;;;;;;13.32;8.88;;;4.60;90.80;;;;;;5027034;28;20045;-64
2023/03/09 01:08:37;;;;;;;13.27;9.27;;;4.60;90.70;;;;;;5023280;28;20421;-65
2023/03/09 01:11:12;;;;;;;14.43;9.05;;;4.60;90.90;;;;;;5026483;28;20054;-62
2023/03/09 01:13:46;;;;;;;14.48;8.85;;;4.60;90.90;;;;;;5027494;28;20511;-63
2023/03/09 01:16:21;;;;;;;14.95;9.75;;;4.60;90.90;;;;;;5024197;28;20056;-63
2023/03/09 01:18:54;;;;;;;15.40;9.32;;;4.70;90.80;;;;;;5026328;28;20051;-64
2023/03/09 01:21:21;;;;;;;15.20;9.30;;;4.60;90.70;;;;;;5026408;28;20060;-60
2023/03/09 01:23:55;;;;;;;13.77;8.73;;;4.70;90.90;;;;;;5022804;28;20064;-60
2023/03/09 01:26:29;;;;;;;12.65;9.15;;;4.70;91.00;;;;;;5023817;28;20076;-69
2023/03/09 01:29:02;;;;;;;15.95;8.73;;;4.60;90.20;;;;;;5025467;28;20141;-69
2023/03/09 01:31:37;;;;;;;14.10;8.80;;;4.70;90.70;;;;;;5017630;28;20487;-69
2023/03/09 01:34:12;;;;;;;16.92;9.15;;;4.70;90.90;;;;;;5005856;28;20057;-69
2023/03/09 01:36:46;;;;;;;13.07;8.20;;;4.70;91.00;;;;;;5026195;28;20044;-66
2023/03/09 01:39:26;;;;;;;14.07;8.55;;;4.70;91.00;;;;;;5007657;28;20060;-66
2023/03/09 01:42:06;;;;;;;12.65;8.00;;;4.70;90.90;;;;;;5026044;28;20077;-64
2023/03/09 01:44:41;;;;;;;13.30;7.97;;;4.70;91.00;;;;;;5004737;28;20072;-66
2023/03/09 01:47:15;;;;;;;13.45;7.93;;;4.80;91.20;;;;;;5024243;28;20063;-69
2023/03/09 01:49:51;;;;;;;15.93;9.70;;;4.80;91.10;;;;;;5005429;28;20072;-70
2023/03/09 01:52:29;;;;;;;13.40;8.40;;;4.80;91.20;;;;;;5025452;28;20052;-61
2023/03/09 01:55:06;;;;;;;13.15;8.00;;;4.80;91.10;;;;;;5023809;28;20053;-62
2023/03/09 01:57:43;;;;;;;12.45;8.38;;;4.80;91.10;;;;;;5022173;28;20045;-61
2023/03/09 02:00:20;;;;;;;12.02;7.57;;;4.90;91.50;;;;;;5025379;28;20057;-62
2023/03/09 02:02:59;;;;;;;11.45;6.82;;;4.90;91.80;;;;;;5021970;28;20049;-62
2023/03/09 02:05:38;;;;;;;9.40;6.90;;;5.00;91.90;;;;;;5021632;28;20049;-62
2023/03/09 02:08:16;;;;;;;11.90;6.47;;;5.10;92.20;;;;;;5025068;28;20068;-60
2023/03/09 02:10:56;;;;;;;9.18;6.07;;;5.10;91.80;;;;;;5022787;28;20042;-61
2023/03/09 02:13:32;;;;;;;11.23;6.00;;;5.20;92.20;;;;;;5024162;28;20080;-61
2023/03/09 02:16:07;;;;;;;7.75;4.15;;;5.30;92.40;;;;;;5021286;28;20042;-62
2023/03/09 02:18:42;;;;;;;5.78;3.00;;;5.50;93.50;;;;;;5006621;28;20523;-62
2023/03/09 02:21:27;;;;;;;4.65;2.13;;;5.70;93.90;;;;;;5022800;28;20049;-61
2023/03/09 02:24:08;;;;;;;5.10;1.30;;;5.90;94.00;;;;;;5023780;28;20049;-60
2023/03/09 02:26:45;;;;;;;4.05;1.40;;;6.00;94.00;;;;;;5023148;28;20120;-62
2023/03/09 02:29:21;;;;;;;3.42;1.30;;;6.10;94.20;;;;;;5022633;28;20076;-62
2023/03/09 02:31:55;;;;;;;2.63;1.10;;;6.10;94.20;;;;;;5023770;28;20483;-63
2023/03/09 02:34:29;;;;;;;3.08;0.85;;;6.20;94.30;;;;;;5023313;28;20049;-61
2023/03/09 02:37:02;;;;;;;2.00;0.90;;;6.20;94.40;;;;;;5023411;28;20053;-60
2023/03/09 02:39:43;;;;;;;2.00;0.65;;;6.40;94.60;;;;;;5013238;28;20131;-61
2023/03/09 02:42:23;;;;;;;2.15;0.70;;;6.50;94.70;;;;;;5002804;28;20078;-61
2023/03/09 02:44:59;;;;;;;3.70;0.85;;;6.60;94.90;;;;;;5003506;28;20049;-61
2023/03/09 02:47:33;;;;;;;1.27;0.50;;;6.70;95.00;;;;;;5003145;28;20456;-61
2023/03/09 02:50:09;;;;;;;3.95;1.23;;;6.70;95.10;;;;;;5002411;28;20098;-61
2023/03/09 02:52:43;;;;;;;2.15;0.73;;;6.80;95.10;;;;;;5003764;28;20049;-62
2023/03/09 02:55:18;;;;;;;4.00;0.80;;;6.70;95.10;;;;;;5001783;28;20081;-62
2023/03/09 02:57:52;;;;;;;0.70;0.50;;;6.80;95.10;;;;;;4999986;28;20054;-62
2023/03/09 03:00:28;;;;;;;3.75;0.60;;;6.80;95.20;;;;;;5003013;28;20785;-61
2023/03/09 03:03:02;;;;;;;3.53;0.80;;;6.90;95.20;;;;;;5018848;28;20057;-62
2023/03/09 03:05:35;;;;;;;1.20;0.50;;;6.90;95.30;;;;;;5001526;28;20046;-62
2023/03/09 03:08:08;;;;;;;2.20;0.75;;;7.00;95.30;;;;;;5001621;28;20038;-62
2023/03/09 03:10:42;;;;;;;1.35;0.60;;;6.90;95.30;;;;;;5002041;28;20050;-63
2023/03/09 03:13:16;;;;;;;1.35;0.55;;;6.90;95.30;;;;;;5020120;28;20049;-62
2023/03/09 03:15:51;;;;;;;2.10;0.65;;;7.00;95.40;;;;;;5018725;28;20160;-57
2023/03/09 03:18:24;;;;;;;3.53;0.75;;;7.00;95.40;;;;;;5000597;28;20124;-58
2023/03/09 03:20:57;;;;;;;1.45;0.73;;;7.00;95.30;;;;;;5013842;28;20037;-67
2023/03/09 03:23:32;;;;;;;0.88;0.50;;;7.00;95.40;;;;;;5003358;28;20379;-68
2023/03/09 03:26:08;;;;;;;1.30;0.50;;;7.10;95.40;;;;;;5002675;28;20639;-59
2023/03/09 03:28:46;;;;;;;1.38;0.50;;;7.10;95.50;;;;;;4999722;28;20057;-60
2023/03/09 03:31:26;;;;;;;1.83;0.55;;;7.10;95.40;;;;;;4999350;28;20053;-60
2023/03/09 03:33:59;;;;;;;0.90;0.57;;;7.10;95.50;;;;;;5012773;28;21614;-60
2023/03/09 03:36:38;;;;;;;1.10;0.50;;;7.10;95.50;;;;;;5002144;28;20497;-59
2023/03/09 03:39:13;;;;;;;1.10;0.50;;;7.10;95.50;;;;;;5001208;28;20058;-60
2023/03/09 03:41:47;;;;;;;2.55;0.50;;;7.10;95.50;;;;;;5001849;28;20061;-65
2023/03/09 03:44:21;;;;;;;2.35;0.55;;;7.10;95.50;;;;;;5001531;28;20269;-63
2023/03/09 03:46:57;;;;;;;2.05;0.45;;;7.10;95.50;;;;;;5001585;28;20130;-62
2023/03/09 03:49:30;;;;;;;1.42;0.60;;;7.10;95.50;;;;;;5016436;28;20061;-62
2023/03/09 03:52:07;;;;;;;1.48;0.50;;;7.20;95.50;;;;;;5001517;28;20073;-65
2023/03/09 03:54:41;;;;;;;1.80;0.68;;;7.20;95.50;;;;;;5002419;28;20089;-65
2023/03/09 03:57:15;;;;;;;1.55;0.65;;;7.20;95.50;;;;;;5002149;28;20054;-65
2023/03/09 03:59:48;;;;;;;2.72;0.70;;;7.20;95.50;;;;;;5002564;28;20073;-65
2023/03/09 04:02:22;;;;;;;1.40;0.55;;;7.20;95.50;;;;;;5001832;28;20052;-63
2023/03/09 04:04:56;;;;;;;2.58;0.70;;;7.20;95.50;;;;;;5000979;28;20532;-63
2023/03/09 04:07:30;;;;;;;1.95;0.70;;;7.20;95.50;;;;;;5001516;28;20053;-63
2023/03/09 04:10:04;;;;;;;1.25;0.50;;;7.20;95.40;;;;;;5002982;28;20034;-62
2023/03/09 04:12:41;;;;;;;1.13;0.60;;;7.30;95.40;;;;;;5004295;28;20416;-63
2023/03/09 04:15:15;;;;;;;0.75;0.40;;;7.30;95.40;;;;;;5001374;28;20053;-62
2023/03/09 04:17:51;;;;;;;1.48;0.52;;;7.30;95.40;;;;;;5017124;28;20049;-61
2023/03/09 04:20:26;;;;;;;2.83;0.55;;;7.20;95.40;;;;;;5018434;28;20080;-62
2023/03/09 04:23:00;;;;;;;0.77;0.40;;;7.30;95.40;;;;;;5005789;28;20049;-63
2023/03/09 04:25:35;;;;;;;1.20;0.50;;;7.30;95.40;;;;;;5002689;28;20050;-64
2023/03/09 04:28:08;;;;;;;0.63;0.38;;;7.30;95.30;;;;;;5024108;28;20069;-63
2023/03/09 04:30:45;;;;;;;1.30;0.50;;;7.30;95.30;;;;;;5004848;28;20979;-62
2023/03/09 04:33:20;;;;;;;1.13;0.40;;;7.30;95.20;;;;;;5004177;28;20485;-62
2023/03/09 04:36:00;;;;;;;0.57;0.30;;;7.30;95.10;;;;;;5004256;28;20053;-62
2023/03/09 04:38:36;;;;;;;1.48;0.40;;;7.30;95.10;;;;;;5003742;28;20500;-62
2023/03/09 04:41:16;;;;;;;3.65;0.55;;;7.40;95.00;;;;;;5002470;28;20115;-60
2023/03/09 04:43:53;;;;;;;2.40;0.80;;;7.40;94.90;;;;;;5022668;28;20045;-62
2023/03/09 04:46:26;;;;;;;1.38;0.50;;;7.40;94.90;;;;;;5007245;28;20123;-62
2023/03/09 04:49:04;;;;;;;1.55;0.50;;;7.40;94.80;;;;;;5005468;28;20103;-63
2023/03/09 04:51:39;;;;;;;0.88;0.50;;;7.40;94.80;;;;;;5005658;28;20050;-60
2023/03/09 04:54:13;;;;;;;1.20;0.50;;;7.40;94.80;;;;;;5006262;28;20124;-59
2023/03/09 04:56:46;;;;;;;1.83;0.60;;;7.40;94.70;;;;;;5007367;28;20041;-59
2023/03/09 04:59:23;;;;;;;0.65;0.35;;;7.40;94.70;;;;;;5004457;28;20053;-60
2023/03/09 05:01:57;;;;;;;2.28;0.40;;;7.40;94.60;;;;;;5022662;28;20041;-66
2023/03/09 05:04:31;;;;;;;1.50;0.70;;;7.50;94.50;;;;;;5005726;28;20104;-64
2023/03/09 05:07:04;;;;;;;0.88;0.50;;;7.50;94.50;;;;;;5023144;28;20052;-64
2023/03/09 05:09:38;;;;;;;2.15;0.60;;;7.50;94.50;;;;;;5003163;28;20141;-64
2023/03/09 05:12:13;;;;;;;1.90;0.77;;;7.50;94.50;;;;;;5001497;28;20104;-65
2023/03/09 05:14:46;;;;;;;2.15;0.80;;;7.50;94.50;;;;;;5005430;28;20413;-64
2023/03/09 05:17:20;;;;;;;2.00;0.75;;;7.50;94.50;;;;;;5001141;28;20056;-64
2023/03/09 05:19:55;;;;;;;1.20;0.60;;;7.50;94.50;;;;;;5022783;28;20057;-63
2023/03/09 05:22:29;;;;;;;1.08;0.60;;;7.50;94.50;;;;;;5005944;28;20050;-58
2023/03/09 05:25:03;;;;;;;0.70;0.60;;;7.50;94.50;;;;;;5021561;28;20038;-60
2023/03/09 05:27:37;;;;;;;2.05;0.73;;;7.60;94.50;;;;;;5004909;28;20050;-60
2023/03/09 05:30:12;;;;;;;1.75;0.40;;;7.60;94.60;;;;;;5004487;28;20045;-63
2023/03/09 05:32:45;;;;;;;1.00;0.60;;;7.50;94.50;;;;;;5005054;28;20084;-63
2023/03/09 05:35:22;;;;;;;1.70;0.50;;;7.50;94.50;;;;;;5021672;28;20085;-62
2023/03/09 05:37:55;;;;;;;1.33;0.50;;;7.60;94.60;;;;;;5022413;28;20053;-63
2023/03/09 05:40:36;;;;;;;1.20;0.60;;;7.50;94.50;;;;;;5023425;28;20121;-63
2023/03/09 05:43:12;;;;;;;0.70;0.40;;;7.60;94.50;;;;;;5008452;28;20100;-63
2023/03/09 05:45:55;;;;;;;1.10;0.60;;;7.60;94.50;;;;;;5006631;28;20049;-62
2023/03/09 05:48:28;;;;;;;1.80;0.63;;;7.60;94.40;;;;;;5025316;28;20061;-61
2023/03/09 05:51:03;;;;;;;1.60;0.43;;;7.60;94.30;;;;;;5025759;28;20068;-61
2023/03/09 05:53:36;;;;;;;1.45;0.55;;;7.60;94.30;;;;;;5027198;28;20053;-62
2023/03/09 05:56:10;;;;;;;2.22;0.50;;;7.60;94.20;;;;;;5025692;28;20057;-61
2023/03/09 05:58:44;;;;;;;0.85;0.38;;;7.60;94.20;;;;;;5025424;28;20300;-61
2023/03/09 06:01:21;;;;;;;1.33;0.50;;;7.60;94.10;;;;;;5025603;28;20400;-63
2023/03/09 06:04:01;;;;;;;1.00;0.50;;;7.70;94.10;;;;;;5023932;28;20451;-64
2023/03/09 06:06:38;;;;;;;2.15;0.70;;;7.70;94.20;;;;;;5026516;28;20049;-61
2023/03/09 06:09:12;;;;;;;1.52;0.60;;;7.60;94.10;;;;;;5025909;28;21098;-60
2023/03/09 06:11:46;;;;;;;1.23;0.47;;;7.60;94.10;;;;;;5025864;28;20073;-61
2023/03/09 06:14:28;;;;;;;1.73;0.70;;;7.70;94.10;;;;;;5029241;28;20144;-60
2023/03/09 06:17:01;;;;;;;0.82;0.63;;;7.70;94.20;;;;;;5036968;28;20045;-60
2023/03/09 06:19:28;;;;;;;2.45;0.90;;;7.70;94.20;;;;;;5032638;28;20639;-60
2023/03/09 06:22:03;;;;;;;2.40;0.80;;;7.70;94.30;;;;;;5009997;28;20053;-61
2023/03/09 06:24:38;;;;;;;1.75;0.70;;;7.70;94.40;;;;;;5024937;28;20049;-62
2023/03/09 06:27:15;;;;;;;3.28;1.15;;;7.70;94.40;;;;;;5024614;28;20057;-61
2023/03/09 06:29:48;;;;;;;1.63;0.80;;;7.70;94.40;;;;;;5006150;28;20038;-63
2023/03/09 06:32:21;;;;;;;1.17;0.70;;;7.70;94.40;;;;;;5023551;28;20111;-61
2023/03/09 06:34:55;;;;;;;2.05;0.88;;;7.70;94.50;;;;;;5008236;28;20049;-62
2023/03/09 06:37:29;;;;;;;2.05;0.70;;;7.70;94.50;;;;;;5021212;28;20045;-62
2023/03/09 06:40:12;;;;;;;2.22;0.68;;;7.70;94.50;;;;;;5013499;28;20058;-64
2023/03/09 06:42:47;;;;;;;1.27;0.73;;;7.70;94.50;;;;;;5003023;28;20046;-64
2023/03/09 06:45:21;;;;;;;2.13;0.88;;;7.80;94.50;;;;;;5000809;28;20072;-63
2023/03/09 06:47:55;;;;;;;3.30;1.35;;;7.70;94.60;;;;;;5000807;28;20064;-61
2023/03/09 06:50:23;;;;;;;2.25;1.20;;;7.80;94.60;;;;;;5001593;28;20045;-61
2023/03/09 06:53:00;;;;;;;2.47;1.30;;;7.80;94.70;;;;;;5002769;28;20054;-64
2023/03/09 06:55:33;;;;;;;2.70;1.40;;;7.80;94.70;;;;;;4998119;28;20505;-65
2023/03/09 06:58:06;;;;;;;2.40;1.45;;;7.80;94.70;;;;;;5003882;28;20146;-64
2023/03/09 07:00:47;;;;;;;2.75;1.35;;;7.90;94.70;;;;;;5002841;28;20121;-62
2023/03/09 07:03:21;;;;;;;4.00;1.52;;;7.80;94.70;;;;;;4999713;28;20042;-63
2023/03/09 07:05:54;;;;;;;4.13;1.20;;;7.90;94.70;;;;;;5003737;28;20065;-63
2023/03/09 07:08:29;;;;;;;4.50;1.20;;;7.90;94.60;;;;;;5004068;28;20066;-62
2023/03/09 07:11:02;;;;;;;2.35;1.08;;;7.90;94.50;;;;;;5005032;28;20079;-64
2023/03/09 07:13:37;;;;;;;2.92;1.10;;;7.90;94.50;;;;;;5002400;28;20087;-62
2023/03/09 07:16:10;;;;;;;4.03;1.10;;;8.00;94.50;;;;;;5002342;28;20053;-62
2023/03/09 07:18:43;;;;;;;4.30;1.58;;;8.00;94.40;;;;;;5003420;28;20081;-63
2023/03/09 07:21:16;;;;;;;3.90;1.20;;;8.00;94.40;;;;;;5002346;28;20053;-62
2023/03/09 07:23:51;;;;;;;2.83;1.00;;;8.00;94.30;;;;;;5004323;28;20053;-62
2023/03/09 07:26:25;;;;;;;3.05;1.23;;;8.00;94.20;;;;;;5000054;28;20050;-67
2023/03/09 07:28:58;;;;;;;5.65;1.02;;;8.00;94.10;;;;;;5004406;28;20049;-66
2023/03/09 07:31:31;;;;;;;4.00;1.17;;;8.00;94.10;;;;;;5003002;28;20069;-62
2023/03/09 07:34:05;;;;;;;3.55;1.20;;;8.00;94.00;;;;;;4999736;28;20049;-62
2023/03/09 07:36:39;;;;;;;4.80;1.30;;;8.10;94.00;;;;;;5002875;28;20519;-62
2023/03/09 07:39:13;;;;;;;5.70;1.60;;;8.10;93.90;;;;;;5003254;28;20052;-63
2023/03/09 07:41:54;;;;;;;5.75;2.05;;;8.00;93.90;;;;;;5025146;28;20483;-61
2023/03/09 07:44:28;;;;;;;4.25;1.35;;;8.00;93.90;;;;;;5024665;28;20077;-62
2023/03/09 07:47:01;;;;;;;4.90;1.10;;;8.00;94.00;;;;;;5025380;28;20076;-62
2023/03/09 07:49:35;;;;;;;3.92;0.88;;;8.00;94.00;;;;;;5019238;28;20084;-61
2023/03/09 07:52:08;;;;;;;6.25;1.35;;;8.00;94.00;;;;;;5024914;28;20071;-61
2023/03/09 07:54:42;;;;;;;4.78;1.10;;;8.00;93.90;;;;;;5024622;28;20065;-62
2023/03/09 07:57:16;;;;;;;3.70;1.20;;;8.00;94.00;;;;;;5028422;28;20053;-64
2023/03/09 07:59:53;;;;;;;3.13;1.00;;;8.00;94.00;;;;;;5027648;28;20049;-61
2023/03/09 08:02:26;;;;;;;4.13;1.00;;;8.10;94.10;;;;;;5029385;28;20049;-62
2023/03/09 08:05:00;;;;;;;3.95;1.08;;;8.10;94.10;;;;;;5027189;28;20048;-61
2023/03/09 08:07:33;;;;;;;5.57;1.40;;;8.10;94.10;;;;;;5027759;28;20124;-62
2023/03/09 08:10:02;;;;;;;5.85;2.00;;;8.10;94.10;;;;;;5027592;28;20061;-62
2023/03/09 08:12:35;;;;;;;5.03;1.35;;;8.10;94.00;;;;;;5028166;28;20053;-62
2023/03/09 08:15:09;;;;;;;5.70;1.67;;;8.10;94.00;;;;;;5027432;28;20111;-62
2023/03/09 08:17:42;;;;;;;6.50;2.13;;;8.10;93.80;;;;;;5027840;28;20618;-63
2023/03/09 08:20:15;;;;;;;8.60;2.20;;;8.20;93.80;;;;;;5027428;28;20068;-62
2023/03/09 08:22:49;;;;;;;6.65;2.30;;;8.20;93.80;;;;;;5028914;28;20064;-61
2023/03/09 08:25:23;;;;;;;8.45;2.33;;;8.30;93.80;;;;;;5026521;28;20609;-62
2023/03/09 08:27:58;;;;;;;6.97;2.28;;;8.30;93.80;;;;;;5027963;28;20053;-62
2023/03/09 08:30:31;;;;;;;7.00;2.40;;;8.30;93.60;;;;;;5027532;28;20053;-61
2023/03/09 08:33:05;;;;;;;8.57;2.05;;;8.30;93.60;;;;;;5028836;28;20060;-62
2023/03/09 08:35:38;;;;;;;4.47;1.67;;;8.30;93.60;;;;;;5027295;28;20056;-63
2023/03/09 08:38:11;;;;;;;6.50;2.42;;;8.30;93.60;;;;;;5028773;28;20075;-62
2023/03/09 08:40:48;;;;;;;5.03;2.25;;;8.40;93.50;;;;;;5012684;28;20100;-61
2023/03/09 08:43:28;;;;;;;7.32;2.20;;;8.40;93.50;;;;;;5007815;28;20680;-60
2023/03/09 08:46:02;;;;;;;5.15;1.70;;;8.40;93.50;;;;;;5005118;28;20042;-60
2023/03/09 08:48:35;;;;;;;8.18;2.17;;;8.40;93.50;;;;;;5004267;28;20050;-61
2023/03/09 08:51:09;;;;;;;9.18;2.13;;;8.40;93.50;;;;;;5005681;28;20034;-59
2023/03/09 08:53:43;;;;;;;5.30;2.20;;;8.40;93.50;;;;;;5007015;28;20050;-60
2023/03/09 08:56:17;;;;;;;5.55;1.80;;;8.40;93.50;;;;;;5004073;28;20053;-60
2023/03/09 08:58:51;;;;;;;6.40;1.95;;;8.40;93.40;;;;;;5005386;28;20437;-61
2023/03/09 09:01:25;;;;;;;5.10;1.92;;;8.40;93.60;;;;;;5007045;28;20872;-61
2023/03/09 09:03:58;;;;;;;6.10;1.88;;;8.50;93.50;;;;;;5006634;28;20084;-61
2023/03/09 09:06:31;;;;;;;7.40;2.78;;;8.50;93.60;;;;;;5005083;28;20054;-61
2023/03/09 09:09:05;;;;;;;9.07;1.98;;;8.50;93.50;;;;;;5004400;28;20081;-60
2023/03/09 09:11:40;;;;;;;6.15;2.05;;;8.50;93.60;;;;;;5007643;28;20060;-61
2023/03/09 09:14:13;;;;;;;5.22;1.88;;;8.50;93.50;;;;;;5020722;28;20400;-59
2023/03/09 09:16:40;;;;;;;5.00;1.98;;;8.60;93.50;;;;;;5002948;28;20045;-59
2023/03/09 09:19:13;;;;;;;4.72;1.38;;;8.70;93.50;;;;;;5003648;28;20130;-61
2023/03/09 09:21:46;;;;;;;7.10;2.17;;;8.60;93.50;;;;;;5007023;28;20132;-57
2023/03/09 09:24:20;;;;;;;8.32;1.60;;;8.70;93.40;;;;;;5005064;28;20045;-58
2023/03/09 09:26:56;;;;;;;5.57;1.67;;;8.70;93.40;;;;;;5007137;28;20045;-58
2023/03/09 09:29:30;;;;;;;3.80;1.55;;;8.70;93.40;;;;;;5004577;28;20132;-58
2023/03/09 09:32:05;;;;;;;5.57;1.60;;;8.80;93.40;;;;;;5005418;28;20058;-59
2023/03/09 09:34:38;;;;;;;7.32;2.00;;;8.80;93.30;;;;;;5003862;28;20038;-58
2023/03/09 09:37:11;;;;;;;4.43;1.80;;;8.80;93.20;;;;;;5005096;28;20409;-58
2023/03/09 09:39:45;;;;;;;4.35;1.38;;;8.90;93.00;;;;;;5005362;28;20057;-58
2023/03/09 09:42:30;;;;;;;5.78;1.50;;;8.90;93.00;;;;;;5006579;28;20349;-58
2023/03/09 09:45:06;;;;;;;4.25;1.70;;;8.90;93.00;;;;;;5005770;28;20042;-58
2023/03/09 09:47:39;;;;;;;5.90;1.70;;;8.90;93.00;;;;;;5007265;28;20052;-58
2023/03/09 09:50:15;;;;;;;4.38;1.55;;;8.90;92.90;;;;;;5003562;28;20041;-59
2023/03/09 09:52:55;;;;;;;5.53;1.60;;;8.90;92.90;;;;;;5007500;28;20034;-58
2023/03/09 09:55:34;;;;;;;5.43;1.58;;;8.90;92.90;;;;;;5004793;28;20064;-58
2023/03/09 09:58:24;;;;;;;5.75;1.38;;;8.90;92.90;;;;;;5007858;28;20056;-59
2023/03/09 10:01:01;;;;;;;5.72;1.95;;;8.90;93.10;;;;;;5006624;28;20060;-60
2023/03/09 10:03:38;;;;;;;4.82;1.67;;;8.90;93.00;;;;;;5002655;28;20046;-57
2023/03/09 10:06:17;;;;;;;5.07;1.95;;;9.00;93.20;;;;;;5005493;28;20053;-58
2023/03/09 10:08:56;;;;;;;3.55;1.45;;;9.00;93.10;;;;;;5002275;28;20049;-56
2023/03/09 10:11:48;;;;;;;6.50;1.98;;;9.00;93.00;;;;;;5001760;28;20052;-59
2023/03/09 10:14:35;;;;;;;2.83;1.13;;;9.00;93.10;;;;;;5005480;28;20104;-58
2023/03/09 10:17:14;;;;;;;3.50;1.80;;;9.00;93.00;;;;;;5005819;28;20058;-58
2023/03/09 10:19:49;;;;;;;3.63;1.40;;;9.00;93.00;;;;;;5003044;28;20133;-59
2023/03/09 10:22:25;;;;;;;4.60;1.60;;;9.10;93.00;;;;;;5004860;28;20046;-58
2023/03/09 10:24:59;;;;;;;1.67;0.98;;;9.10;93.00;;;;;;5006652;28;20050;-58
2023/03/09 10:27:41;;;;;;;5.97;1.70;;;9.20;92.80;;;;;;5005418;28;20136;-58
2023/03/09 10:30:23;;;;;;;3.50;1.38;;;9.20;92.70;;;;;;5015885;28;20497;-58
2023/03/09 10:33:00;;;;;;;4.47;1.58;;;9.20;92.60;;;;;;5004517;28;20460;-59
2023/03/09 10:35:41;;;;;;;5.72;1.48;;;9.20;92.60;;;;;;5003146;28;20061;-59
2023/03/09 10:38:15;;;;;;;2.75;1.10;;;9.30;92.60;;;;;;5006105;28;20030;-59
2023/03/09 10:40:57;;;;;;;4.13;1.20;;;9.30;92.40;;;;;;5017341;28;20045;-59
2023/03/09 10:43:33;;;;;;;5.70;1.70;;;9.40;92.50;;;;;;5023999;28;20053;-59
2023/03/09 10:46:14;;;;;;;6.78;1.60;;;9.40;92.40;;;;;;5019543;28;20054;-64
2023/03/09 10:48:49;;;;;;;4.03;1.20;;;9.40;92.30;;;;;;5024739;28;20049;-57
2023/03/09 10:51:26;;;;;;;6.35;2.42;;;9.40;92.20;;;;;;5025844;28;20116;-59
2023/03/09 10:54:16;;;;;;;5.22;2.05;;;9.50;92.10;;;;;;5025364;28;20773;-59
2023/03/09 10:56:49;;;;;;;4.82;1.25;;;9.50;92.20;;;;;;5026367;28;20511;-59
2023/03/09 10:59:25;;;;;;;3.50;1.55;;;9.50;92.10;;;;;;5024452;28;20042;-59
2023/03/09 11:02:01;;;;;;;4.22;1.50;;;9.60;92.20;;;;;;5024711;28;20073;-59
2023/03/09 11:04:36;;;;;;;5.80;1.42;;;9.60;92.20;;;;;;5023343;28;20542;-60
2023/03/09 11:07:19;;;;;;;8.07;1.92;;;9.60;92.10;;;;;;5024988;28;20037;-60
2023/03/09 11:09:53;;;;;;;3.83;1.35;;;9.60;92.10;;;;;;5024955;28;20056;-59
2023/03/09 11:12:33;;;;;;;3.50;1.35;;;9.70;92.10;;;;;;5024436;28;20054;-60
2023/03/09 11:15:27;;;;;;;4.40;1.40;;;9.70;92.10;;;;;;5024597;28;20057;-59
2023/03/09 11:18:03;;;;;;;6.13;1.63;;;9.70;92.00;;;;;;5025664;28;20550;-58
2023/03/09 11:20:39;;;;;;;5.10;1.58;;;9.70;92.00;;;;;;5023381;28;20074;-60
2023/03/09 11:23:23;;;;;;;6.80;1.70;;;9.70;91.90;;;;;;5020426;28;20045;-59
2023/03/09 11:26:06;;;;;;;4.70;1.40;;;9.80;91.90;;;;;;5023190;28;20048;-61
2023/03/09 11:28:48;;;;;;;3.67;1.38;;;9.90;91.80;;;;;;5006624;28;20041;-62
2023/03/09 11:31:24;;;;;;;7.32;1.67;;;10.00;91.70;;;;;;5025394;28;20045;-62
2023/03/09 11:33:59;;;;;;;4.88;1.33;;;10.10;91.40;;;;;;5028065;28;20437;-61
2023/03/09 11:36:38;;;;;;;6.75;1.75;;;10.10;91.30;;;;;;5025535;28;20045;-61
2023/03/09 11:39:19;;;;;;;5.97;1.63;;;10.10;91.60;;;;;;5027205;28;20124;-61
2023/03/09 11:42:00;;;;;;;6.28;1.65;;;10.10;91.50;;;;;;5029178;28;20041;-61
2023/03/09 11:44:37;;;;;;;6.93;1.48;;;10.10;91.30;;;;;;5028247;28;20140;-62
2023/03/09 11:47:23;;;;;;;4.82;1.30;;;10.00;91.40;;;;;;5029668;28;20362;-61
2023/03/09 11:50:02;;;;;;;5.22;1.42;;;10.00;91.40;;;;;;5028150;28;20705;-61
2023/03/09 11:52:39;;;;;;;3.40;1.40;;;10.00;91.40;;;;;;5029025;28;20485;-61
2023/03/09 11:55:16;;;;;;;9.07;1.23;;;10.00;91.30;;;;;;5028764;28;20480;-60
2023/03/09 11:57:55;;;;;;;6.10;1.58;;;9.90;91.30;;;;;;5025963;28;20707;-60
2023/03/09 12:00:29;;;;;;;8.43;2.17;;;9.90;91.60;;;;;;5028089;28;20549;-62
2023/03/09 12:03:09;;;;;;;6.53;2.20;;;9.90;91.70;;;;;;5029059;28;20045;-61
2023/03/09 12:05:46;;;;;;;6.40;1.58;;;9.90;91.70;;;;;;5027844;28;20128;-62
2023/03/09 12:08:24;;;;;;;6.75;1.92;;;9.90;91.40;;;;;;5029092;28;20057;-60
2023/03/09 12:11:03;;;;;;;7.95;1.80;;;9.90;91.50;;;;;;5028268;28;20081;-62
2023/03/09 12:13:40;;;;;;;8.13;1.95;;;10.00;91.30;;;;;;5025926;28;20049;-61
2023/03/09 12:16:19;;;;;;;9.18;2.45;;;10.00;91.30;;;;;;5028501;28;20132;-62
2023/03/09 12:19:00;;;;;;;8.48;2.95;;;10.00;91.30;;;;;;5028123;28;20148;-61
2023/03/09 12:21:37;;;;;;;7.63;2.38;;;10.00;91.50;;;;;;5026254;28;20049;-61
2023/03/09 12:24:27;;;;;;;7.53;2.13;;;10.00;91.40;;;;;;5028316;28;20064;-61
2023/03/09 12:27:06;;;;;;;7.28;1.85;;;10.00;91.30;;;;;;5027558;28;20048;-61
2023/03/09 12:29:43;;;;;;;9.93;2.03;;;10.00;91.40;;;;;;5027836;28;20053;-60
2023/03/09 12:32:36;;;;;;;6.85;2.08;;;10.00;91.40;;;;;;5027319;28;20049;-61
2023/03/09 12:35:42;;;;;;;6.63;1.98;;;10.00;91.50;;;;;;5017879;28;20049;-61
2023/03/09 12:38:22;;;;;;;6.22;2.80;;;10.00;91.50;;;;;;5027969;28;20052;-60
2023/03/09 12:41:01;;;;;;;6.40;1.80;;;10.00;91.60;;;;;;5025746;28;20045;-61
2023/03/09 12:43:48;;;;;;;6.18;2.78;;;10.00;91.60;;;;;;5026976;28;20058;-61
2023/03/09 12:46:59;;;;;;;5.07;2.05;;;10.00;91.30;;;;;;5027503;28;20047;-62
2023/03/09 12:49:40;;;;;;;5.55;2.25;;;10.00;91.30;;;;;;5008331;28;20052;-62
2023/03/09 12:52:43;;;;;;;6.60;2.38;;;10.10;91.20;;;;;;5028926;28;20132;-61
2023/03/09 12:55:43;;;;;;;5.10;1.77;;;10.10;91.10;;;;;;5027447;28;20120;-59
2023/03/09 12:58:47;;;;;;;6.60;1.98;;;10.10;90.90;;;;;;5027564;28;20063;-61
2023/03/09 13:01:33;;;;;;;5.03;1.70;;;10.20;90.90;;;;;;5027151;28;20536;-65
2023/03/09 13:04:18;;;;;;;5.00;1.60;;;10.20;90.80;;;;;;5027027;28;20879;-65
2023/03/09 13:06:59;;;;;;;5.10;1.83;;;10.30;90.70;;;;;;5027995;28;20195;-58
2023/03/09 13:09:39;;;;;;;6.53;1.77;;;10.30;90.70;;;;;;5027506;28;20064;-58
2023/03/09 13:12:19;;;;;;;6.55;2.10;;;10.30;90.60;;;;;;5029333;28;20107;-63
2023/03/09 13:15:23;;;;;;;4.60;1.25;;;10.40;90.40;;;;;;5026981;28;20068;-63
2023/03/09 13:18:23;;;;;;;5.05;1.80;;;10.40;90.30;;;;;;5028658;28;20069;-60
2023/03/09 13:20:56;;;;;;;6.38;1.70;;;10.50;90.30;;;;;;5027252;28;20045;-60
2023/03/09 13:23:32;;;;;;;7.28;1.83;;;10.50;90.00;;;;;;5009689;28;20056;-65
2023/03/09 13:26:14;;;;;;;5.13;1.90;;;10.60;89.80;;;;;;5029322;28;20057;-61
2023/03/09 13:28:49;;;;;;;5.07;2.00;;;10.60;89.80;;;;;;5027301;28;20045;-61
2023/03/09 13:31:27;;;;;;;4.35;1.50;;;10.60;89.50;;;;;;5025797;28;20045;-61
2023/03/09 13:34:01;;;;;;;7.60;2.33;;;10.60;89.80;;;;;;5027938;28;20041;-61
2023/03/09 13:36:36;;;;;;;8.30;1.80;;;10.60;89.70;;;;;;5027313;28;20051;-61
2023/03/09 13:39:18;;;;;;;5.05;1.65;;;10.60;89.50;;;;;;5027092;28;20045;-62
2023/03/09 13:41:58;;;;;;;7.22;1.60;;;10.60;89.40;;;;;;5025332;28;20653;-61